sensor_id;sensor_type;location;lat;lon;timestamp;P1;durP1;ratioP1;P2;durP2;ratioP2
21665;SDS011;10994;45.486;9.190;2022-08-01T00:01:54;3.78;;;2.38;;
21665;SDS011;10994;45.486;9.190;2022-08-01T00:04:19;2.42;;;2.10;;
21665;SDS011;10994;45.486;9.190;2022-08-01T00:06:45;2.38;;;2.17;;
21665;SDS011;10994;45.486;9.190;2022-08-01T00:09:11;2.60;;;2.00;;
21665;SDS011;10994;45.486;9.190;2022-08-01T00:11:36;2.35;;;2.10;;
21665;SDS011;10994;45.486;9.190;2022-08-01T00:14:02;2.22;;;2.00;;
21665;SDS011;10994;45.486;9.190;2022-08-01T00:16:28;5.28;;;2.30;;
21665;SDS011;10994;45.486;9.190;2022-08-01T00:18:53;2.72;;;2.30;;
21665;SDS011;10994;45.486;9.190;2022-08-01T00:21:20;2.00;;;1.77;;
21665;SDS011;10994;45.486;9.190;2022-08-01T00:23:46;3.85;;;1.70;;
21665;SDS011;10994;45.486;9.190;2022-08-01T00:26:12;3.58;;;2.40;;
21665;SDS011;10994;45.486;9.190;2022-08-01T00:28:38;2.50;;;2.30;;
21665;SDS011;10994;45.486;9.190;2022-08-01T00:31:04;2.45;;;2.25;;
21665;SDS011;10994;45.486;9.190;2022-08-01T00:33:30;3.05;;;2.40;;
21665;SDS011;10994;45.486;9.190;2022-08-01T00:35:55;4.53;;;2.35;;
21665;SDS011;10994;45.486;9.190;2022-08-01T00:38:21;2.47;;;2.17;;
21665;SDS011;10994;45.486;9.190;2022-08-01T00:40:47;3.65;;;1.88;;
21665;SDS011;10994;45.486;9.190;2022-08-01T00:43:13;3.53;;;2.22;;
21665;SDS011;10994;45.486;9.190;2022-08-01T00:45:39;3.08;;;2.22;;
21665;SDS011;10994;45.486;9.190;2022-08-01T00:48:06;2.92;;;1.92;;
21665;SDS011;10994;45.486;9.190;2022-08-01T00:50:32;2.40;;;2.20;;
21665;SDS011;10994;45.486;9.190;2022-08-01T00:52:59;3.42;;;2.30;;
21665;SDS011;10994;45.486;9.190;2022-08-01T00:55:26;3.30;;;2.53;;
21665;SDS011;10994;45.486;9.190;2022-08-01T00:57:52;5.63;;;2.83;;
21665;SDS011;10994;45.486;9.190;2022-08-01T01:00:18;3.17;;;2.60;;
21665;SDS011;10994;45.486;9.190;2022-08-01T01:02:44;3.13;;;2.47;;
21665;SDS011;10994;45.486;9.190;2022-08-01T01:05:10;2.67;;;2.47;;
21665;SDS011;10994;45.486;9.190;2022-08-01T01:13:06;3.35;;;2.55;;
21665;SDS011;10994;45.486;9.190;2022-08-01T01:15:47;3.28;;;2.65;;
21665;SDS011;10994;45.486;9.190;2022-08-01T01:18:23;5.00;;;3.13;;
21665;SDS011;10994;45.486;9.190;2022-08-01T01:20:53;3.80;;;2.65;;
21665;SDS011;10994;45.486;9.190;2022-08-01T01:31:45;5.43;;;2.67;;
21665;SDS011;10994;45.486;9.190;2022-08-01T01:34:15;2.90;;;2.60;;
21665;SDS011;10994;45.486;9.190;2022-08-01T01:36:44;3.03;;;2.50;;
21665;SDS011;10994;45.486;9.190;2022-08-01T01:39:12;4.55;;;2.70;;
21665;SDS011;10994;45.486;9.190;2022-08-01T01:41:39;3.15;;;2.70;;
21665;SDS011;10994;45.486;9.190;2022-08-01T01:44:07;3.13;;;2.70;;
21665;SDS011;10994;45.486;9.190;2022-08-01T01:46:34;3.45;;;2.30;;
21665;SDS011;10994;45.486;9.190;2022-08-01T01:49:01;3.40;;;2.42;;
21665;SDS011;10994;45.486;9.190;2022-08-01T01:51:28;4.53;;;2.85;;
21665;SDS011;10994;45.486;9.190;2022-08-01T01:53:55;3.38;;;2.72;;
21665;SDS011;10994;45.486;9.190;2022-08-01T01:56:22;3.10;;;2.83;;
21665;SDS011;10994;45.486;9.190;2022-08-01T01:58:50;3.53;;;3.03;;
21665;SDS011;10994;45.486;9.190;2022-08-01T02:01:21;3.22;;;2.45;;
21665;SDS011;10994;45.486;9.190;2022-08-01T02:03:48;3.83;;;2.90;;
21665;SDS011;10994;45.486;9.190;2022-08-01T02:06:16;4.30;;;2.63;;
21665;SDS011;10994;45.486;9.190;2022-08-01T02:08:42;3.85;;;2.55;;
21665;SDS011;10994;45.486;9.190;2022-08-01T02:11:10;3.00;;;2.63;;
21665;SDS011;10994;45.486;9.190;2022-08-01T02:13:53;3.00;;;2.67;;
21665;SDS011;10994;45.486;9.190;2022-08-01T02:16:24;3.20;;;2.33;;
21665;SDS011;10994;45.486;9.190;2022-08-01T02:18:52;3.22;;;2.55;;
21665;SDS011;10994;45.486;9.190;2022-08-01T02:21:20;4.05;;;2.42;;
21665;SDS011;10994;45.486;9.190;2022-08-01T02:23:54;2.63;;;2.30;;
21665;SDS011;10994;45.486;9.190;2022-08-01T02:26:25;3.28;;;2.05;;
21665;SDS011;10994;45.486;9.190;2022-08-01T02:28:53;2.55;;;2.08;;
21665;SDS011;10994;45.486;9.190;2022-08-01T02:31:22;2.97;;;2.30;;
21665;SDS011;10994;45.486;9.190;2022-08-01T02:34:10;4.53;;;2.58;;
21665;SDS011;10994;45.486;9.190;2022-08-01T02:36:37;2.35;;;2.10;;
21665;SDS011;10994;45.486;9.190;2022-08-01T02:39:07;2.25;;;1.95;;
21665;SDS011;10994;45.486;9.190;2022-08-01T02:41:36;4.50;;;2.20;;
21665;SDS011;10994;45.486;9.190;2022-08-01T02:44:07;2.50;;;1.90;;
21665;SDS011;10994;45.486;9.190;2022-08-01T02:46:41;2.40;;;2.00;;
21665;SDS011;10994;45.486;9.190;2022-08-01T02:49:13;4.63;;;2.40;;
21665;SDS011;10994;45.486;9.190;2022-08-01T02:51:40;5.13;;;2.75;;
21665;SDS011;10994;45.486;9.190;2022-08-01T02:54:08;2.80;;;2.30;;
21665;SDS011;10994;45.486;9.190;2022-08-01T02:56:36;2.60;;;2.40;;
21665;SDS011;10994;45.486;9.190;2022-08-01T02:59:04;2.83;;;2.50;;
21665;SDS011;10994;45.486;9.190;2022-08-01T03:01:33;3.35;;;2.80;;
21665;SDS011;10994;45.486;9.190;2022-08-01T03:04:00;3.05;;;2.75;;
21665;SDS011;10994;45.486;9.190;2022-08-01T03:06:28;2.95;;;2.65;;
21665;SDS011;10994;45.486;9.190;2022-08-01T03:08:54;4.82;;;2.65;;
21665;SDS011;10994;45.486;9.190;2022-08-01T03:11:22;3.47;;;3.08;;
21665;SDS011;10994;45.486;9.190;2022-08-01T03:13:49;4.03;;;3.28;;
21665;SDS011;10994;45.486;9.190;2022-08-01T03:16:17;3.53;;;2.60;;
21665;SDS011;10994;45.486;9.190;2022-08-01T03:18:44;2.78;;;2.47;;
21665;SDS011;10994;45.486;9.190;2022-08-01T03:21:11;3.95;;;2.50;;
21665;SDS011;10994;45.486;9.190;2022-08-01T03:23:38;3.25;;;2.85;;
21665;SDS011;10994;45.486;9.190;2022-08-01T03:26:05;3.47;;;2.80;;
21665;SDS011;10994;45.486;9.190;2022-08-01T03:28:32;3.25;;;2.58;;
21665;SDS011;10994;45.486;9.190;2022-08-01T03:30:58;3.15;;;2.30;;
21665;SDS011;10994;45.486;9.190;2022-08-01T03:33:26;2.53;;;2.22;;
21665;SDS011;10994;45.486;9.190;2022-08-01T03:35:52;2.40;;;2.20;;
21665;SDS011;10994;45.486;9.190;2022-08-01T03:38:21;3.65;;;2.45;;
21665;SDS011;10994;45.486;9.190;2022-08-01T03:40:53;4.22;;;2.25;;
21665;SDS011;10994;45.486;9.190;2022-08-01T03:43:30;3.03;;;2.20;;
21665;SDS011;10994;45.486;9.190;2022-08-01T03:46:11;2.15;;;1.95;;
21665;SDS011;10994;45.486;9.190;2022-08-01T03:48:43;2.45;;;1.55;;
21665;SDS011;10994;45.486;9.190;2022-08-01T03:51:12;2.10;;;2.00;;
21665;SDS011;10994;45.486;9.190;2022-08-01T03:53:38;2.47;;;1.77;;
21665;SDS011;10994;45.486;9.190;2022-08-01T03:56:07;2.08;;;1.92;;
21665;SDS011;10994;45.486;9.190;2022-08-01T03:58:34;5.40;;;2.30;;
21665;SDS011;10994;45.486;9.190;2022-08-01T04:01:01;2.22;;;2.00;;
21665;SDS011;10994;45.486;9.190;2022-08-01T04:03:27;3.17;;;1.70;;
21665;SDS011;10994;45.486;9.190;2022-08-01T04:05:53;3.47;;;1.80;;
21665;SDS011;10994;45.486;9.190;2022-08-01T04:08:18;3.58;;;1.83;;
21665;SDS011;10994;45.486;9.190;2022-08-01T04:10:44;5.13;;;2.22;;
21665;SDS011;10994;45.486;9.190;2022-08-01T04:13:10;4.40;;;2.40;;
21665;SDS011;10994;45.486;9.190;2022-08-01T04:15:35;3.45;;;1.95;;
21665;SDS011;10994;45.486;9.190;2022-08-01T04:18:01;2.05;;;1.95;;
21665;SDS011;10994;45.486;9.190;2022-08-01T04:20:26;2.60;;;2.20;;
21665;SDS011;10994;45.486;9.190;2022-08-01T04:22:52;4.57;;;2.25;;
21665;SDS011;10994;45.486;9.190;2022-08-01T04:25:34;3.47;;;2.22;;
21665;SDS011;10994;45.486;9.190;2022-08-01T04:28:02;4.78;;;2.40;;
21665;SDS011;10994;45.486;9.190;2022-08-01T04:30:33;5.50;;;4.93;;
21665;SDS011;10994;45.486;9.190;2022-08-01T04:33:00;4.40;;;2.72;;
21665;SDS011;10994;45.486;9.190;2022-08-01T04:35:30;2.60;;;2.33;;
21665;SDS011;10994;45.486;9.190;2022-08-01T04:37:57;4.03;;;2.53;;
21665;SDS011;10994;45.486;9.190;2022-08-01T04:40:26;4.05;;;2.22;;
21665;SDS011;10994;45.486;9.190;2022-08-01T04:42:53;3.20;;;2.45;;
21665;SDS011;10994;45.486;9.190;2022-08-01T04:45:18;2.50;;;2.10;;
21665;SDS011;10994;45.486;9.190;2022-08-01T04:47:46;2.72;;;2.33;;
21665;SDS011;10994;45.486;9.190;2022-08-01T04:50:12;3.22;;;2.33;;
21665;SDS011;10994;45.486;9.190;2022-08-01T04:52:38;2.28;;;1.88;;
21665;SDS011;10994;45.486;9.190;2022-08-01T04:55:07;5.45;;;2.00;;
21665;SDS011;10994;45.486;9.190;2022-08-01T04:57:34;4.03;;;2.42;;
21665;SDS011;10994;45.486;9.190;2022-08-01T05:00:04;4.03;;;2.45;;
21665;SDS011;10994;45.486;9.190;2022-08-01T05:02:31;3.42;;;2.33;;
21665;SDS011;10994;45.486;9.190;2022-08-01T05:04:57;3.58;;;2.22;;
21665;SDS011;10994;45.486;9.190;2022-08-01T05:07:22;3.90;;;2.00;;
21665;SDS011;10994;45.486;9.190;2022-08-01T05:09:48;2.08;;;1.83;;
21665;SDS011;10994;45.486;9.190;2022-08-01T05:12:14;2.42;;;2.10;;
21665;SDS011;10994;45.486;9.190;2022-08-01T05:14:40;3.47;;;2.15;;
21665;SDS011;10994;45.486;9.190;2022-08-01T05:17:07;2.00;;;1.80;;
21665;SDS011;10994;45.486;9.190;2022-08-01T05:19:33;3.83;;;2.03;;
21665;SDS011;10994;45.486;9.190;2022-08-01T05:22:01;3.17;;;2.08;;
21665;SDS011;10994;45.486;9.190;2022-08-01T05:24:29;2.55;;;1.88;;
21665;SDS011;10994;45.486;9.190;2022-08-01T05:26:56;4.20;;;2.10;;
21665;SDS011;10994;45.486;9.190;2022-08-01T05:29:22;3.38;;;2.10;;
21665;SDS011;10994;45.486;9.190;2022-08-01T05:31:49;2.45;;;2.00;;
21665;SDS011;10994;45.486;9.190;2022-08-01T05:34:15;3.05;;;1.90;;
21665;SDS011;10994;45.486;9.190;2022-08-01T05:36:41;2.60;;;1.90;;
21665;SDS011;10994;45.486;9.190;2022-08-01T05:39:07;3.10;;;2.10;;
21665;SDS011;10994;45.486;9.190;2022-08-01T05:41:33;3.22;;;1.88;;
21665;SDS011;10994;45.486;9.190;2022-08-01T05:43:58;2.03;;;1.83;;
21665;SDS011;10994;45.486;9.190;2022-08-01T05:46:24;5.93;;;1.75;;
21665;SDS011;10994;45.486;9.190;2022-08-01T05:48:50;2.03;;;1.83;;
21665;SDS011;10994;45.486;9.190;2022-08-01T05:51:15;4.03;;;2.00;;
21665;SDS011;10994;45.486;9.190;2022-08-01T05:53:41;2.20;;;1.83;;
21665;SDS011;10994;45.486;9.190;2022-08-01T05:56:07;3.38;;;2.00;;
21665;SDS011;10994;45.486;9.190;2022-08-01T05:58:32;2.25;;;1.88;;
21665;SDS011;10994;45.486;9.190;2022-08-01T06:00:58;3.30;;;1.90;;
21665;SDS011;10994;45.486;9.190;2022-08-01T06:03:24;13.32;;;3.03;;
21665;SDS011;10994;45.486;9.190;2022-08-01T06:05:53;2.92;;;1.88;;
21665;SDS011;10994;45.486;9.190;2022-08-01T06:08:18;3.90;;;2.33;;
21665;SDS011;10994;45.486;9.190;2022-08-01T06:10:44;2.15;;;1.95;;
21665;SDS011;10994;45.486;9.190;2022-08-01T06:13:10;3.38;;;2.20;;
21665;SDS011;10994;45.486;9.190;2022-08-01T06:15:35;3.28;;;2.97;;
21665;SDS011;10994;45.486;9.190;2022-08-01T06:18:01;3.13;;;2.50;;
21665;SDS011;10994;45.486;9.190;2022-08-01T06:20:27;4.15;;;2.30;;
21665;SDS011;10994;45.486;9.190;2022-08-01T06:22:53;6.13;;;2.80;;
21665;SDS011;10994;45.486;9.190;2022-08-01T06:25:19;4.63;;;2.78;;
21665;SDS011;10994;45.486;9.190;2022-08-01T06:27:45;2.65;;;2.03;;
21665;SDS011;10994;45.486;9.190;2022-08-01T06:30:10;4.35;;;2.38;;
21665;SDS011;10994;45.486;9.190;2022-08-01T06:32:36;4.22;;;2.22;;
21665;SDS011;10994;45.486;9.190;2022-08-01T06:35:02;15.18;;;4.75;;
21665;SDS011;10994;45.486;9.190;2022-08-01T06:37:29;15.07;;;3.42;;
21665;SDS011;10994;45.486;9.190;2022-08-01T06:39:55;5.32;;;2.42;;
21665;SDS011;10994;45.486;9.190;2022-08-01T06:42:25;5.68;;;2.50;;
21665;SDS011;10994;45.486;9.190;2022-08-01T06:44:50;7.88;;;2.85;;
21665;SDS011;10994;45.486;9.190;2022-08-01T06:47:16;4.13;;;2.65;;
21665;SDS011;10994;45.486;9.190;2022-08-01T06:49:42;4.32;;;2.08;;
21665;SDS011;10994;45.486;9.190;2022-08-01T06:52:07;5.95;;;2.40;;
21665;SDS011;10994;45.486;9.190;2022-08-01T06:54:33;2.45;;;2.00;;
21665;SDS011;10994;45.486;9.190;2022-08-01T06:56:59;4.40;;;2.35;;
21665;SDS011;10994;45.486;9.190;2022-08-01T06:59:24;3.17;;;2.10;;
21665;SDS011;10994;45.486;9.190;2022-08-01T07:01:50;2.85;;;2.17;;
21665;SDS011;10994;45.486;9.190;2022-08-01T07:04:16;2.33;;;2.00;;
21665;SDS011;10994;45.486;9.190;2022-08-01T07:06:41;6.43;;;2.60;;
21665;SDS011;10994;45.486;9.190;2022-08-01T07:09:07;4.30;;;2.33;;
21665;SDS011;10994;45.486;9.190;2022-08-01T07:11:33;4.30;;;2.08;;
21665;SDS011;10994;45.486;9.190;2022-08-01T07:13:58;2.45;;;2.25;;
21665;SDS011;10994;45.486;9.190;2022-08-01T07:16:25;3.10;;;1.90;;
21665;SDS011;10994;45.486;9.190;2022-08-01T07:18:50;4.20;;;2.22;;
21665;SDS011;10994;45.486;9.190;2022-08-01T07:21:16;7.55;;;1.90;;
21665;SDS011;10994;45.486;9.190;2022-08-01T07:23:42;4.82;;;2.28;;
21665;SDS011;10994;45.486;9.190;2022-08-01T07:26:07;3.42;;;1.98;;
21665;SDS011;10994;45.486;9.190;2022-08-01T07:28:33;6.85;;;1.67;;
21665;SDS011;10994;45.486;9.190;2022-08-01T07:30:59;4.80;;;1.83;;
21665;SDS011;10994;45.486;9.190;2022-08-01T07:33:25;7.45;;;2.17;;
21665;SDS011;10994;45.486;9.190;2022-08-01T07:35:50;4.00;;;2.33;;
21665;SDS011;10994;45.486;9.190;2022-08-01T07:38:16;5.00;;;2.22;;
21665;SDS011;10994;45.486;9.190;2022-08-01T07:40:42;6.47;;;2.13;;
21665;SDS011;10994;45.486;9.190;2022-08-01T07:43:08;20.90;;;2.78;;
21665;SDS011;10994;45.486;9.190;2022-08-01T07:45:34;3.97;;;1.95;;
21665;SDS011;10994;45.486;9.190;2022-08-01T07:48:03;2.67;;;2.13;;
21665;SDS011;10994;45.486;9.190;2022-08-01T07:50:30;3.88;;;2.03;;
21665;SDS011;10994;45.486;9.190;2022-08-01T07:52:56;6.35;;;2.20;;
21665;SDS011;10994;45.486;9.190;2022-08-01T07:55:22;7.47;;;2.45;;
21665;SDS011;10994;45.486;9.190;2022-08-01T07:57:48;3.55;;;2.33;;
21665;SDS011;10994;45.486;9.190;2022-08-01T08:00:14;8.27;;;2.78;;
21665;SDS011;10994;45.486;9.190;2022-08-01T08:02:40;3.13;;;1.92;;
21665;SDS011;10994;45.486;9.190;2022-08-01T08:05:06;3.85;;;2.10;;
21665;SDS011;10994;45.486;9.190;2022-08-01T08:07:32;3.10;;;2.63;;
21665;SDS011;10994;45.486;9.190;2022-08-01T08:09:58;6.05;;;2.70;;
21665;SDS011;10994;45.486;9.190;2022-08-01T08:12:24;8.82;;;2.33;;
21665;SDS011;10994;45.486;9.190;2022-08-01T08:14:50;18.25;;;3.45;;
21665;SDS011;10994;45.486;9.190;2022-08-01T08:17:16;2.67;;;1.98;;
21665;SDS011;10994;45.486;9.190;2022-08-01T08:19:41;5.05;;;2.13;;
21665;SDS011;10994;45.486;9.190;2022-08-01T08:22:07;4.95;;;2.70;;
21665;SDS011;10994;45.486;9.190;2022-08-01T08:24:34;4.13;;;2.40;;
21665;SDS011;10994;45.486;9.190;2022-08-01T08:27:00;2.55;;;2.05;;
21665;SDS011;10994;45.486;9.190;2022-08-01T08:29:26;3.28;;;2.33;;
21665;SDS011;10994;45.486;9.190;2022-08-01T08:31:55;3.17;;;2.22;;
21665;SDS011;10994;45.486;9.190;2022-08-01T08:34:21;6.43;;;2.55;;
21665;SDS011;10994;45.486;9.190;2022-08-01T08:36:47;4.35;;;2.60;;
21665;SDS011;10994;45.486;9.190;2022-08-01T08:39:13;4.50;;;2.30;;
21665;SDS011;10994;45.486;9.190;2022-08-01T08:41:40;3.72;;;3.28;;
21665;SDS011;10994;45.486;9.190;2022-08-01T08:44:06;4.20;;;2.40;;
21665;SDS011;10994;45.486;9.190;2022-08-01T08:46:33;3.33;;;2.33;;
21665;SDS011;10994;45.486;9.190;2022-08-01T08:49:05;3.45;;;2.78;;
21665;SDS011;10994;45.486;9.190;2022-08-01T08:51:33;6.53;;;3.10;;
21665;SDS011;10994;45.486;9.190;2022-08-01T08:54:03;6.57;;;3.25;;
21665;SDS011;10994;45.486;9.190;2022-08-01T08:56:30;6.82;;;2.85;;
21665;SDS011;10994;45.486;9.190;2022-08-01T08:58:59;5.47;;;2.88;;
21665;SDS011;10994;45.486;9.190;2022-08-01T09:01:28;3.35;;;2.78;;
21665;SDS011;10994;45.486;9.190;2022-08-01T09:03:57;4.47;;;2.25;;
21665;SDS011;10994;45.486;9.190;2022-08-01T09:06:23;5.47;;;3.22;;
21665;SDS011;10994;45.486;9.190;2022-08-01T09:08:49;4.18;;;2.90;;
21665;SDS011;10994;45.486;9.190;2022-08-01T09:11:15;6.90;;;2.72;;
21665;SDS011;10994;45.486;9.190;2022-08-01T09:13:41;3.92;;;2.33;;
21665;SDS011;10994;45.486;9.190;2022-08-01T09:16:06;5.75;;;3.40;;
21665;SDS011;10994;45.486;9.190;2022-08-01T09:18:36;6.50;;;3.35;;
21665;SDS011;10994;45.486;9.190;2022-08-01T09:21:09;4.03;;;2.97;;
21665;SDS011;10994;45.486;9.190;2022-08-01T09:23:39;5.22;;;2.83;;
21665;SDS011;10994;45.486;9.190;2022-08-01T09:26:13;5.10;;;2.70;;
21665;SDS011;10994;45.486;9.190;2022-08-01T09:28:41;9.88;;;2.70;;
21665;SDS011;10994;45.486;9.190;2022-08-01T09:31:10;5.18;;;2.90;;
21665;SDS011;10994;45.486;9.190;2022-08-01T09:33:55;6.72;;;2.50;;
21665;SDS011;10994;45.486;9.190;2022-08-01T09:36:26;5.20;;;3.00;;
21665;SDS011;10994;45.486;9.190;2022-08-01T09:39:12;3.58;;;2.58;;
21665;SDS011;10994;45.486;9.190;2022-08-01T09:41:38;4.03;;;2.20;;
21665;SDS011;10994;45.486;9.190;2022-08-01T09:44:04;3.90;;;2.50;;
21665;SDS011;10994;45.486;9.190;2022-08-01T09:46:30;6.22;;;2.60;;
21665;SDS011;10994;45.486;9.190;2022-08-01T09:49:00;3.97;;;2.50;;
21665;SDS011;10994;45.486;9.190;2022-08-01T09:51:28;4.20;;;1.95;;
21665;SDS011;10994;45.486;9.190;2022-08-01T09:53:58;3.25;;;2.20;;
21665;SDS011;10994;45.486;9.190;2022-08-01T09:56:24;4.72;;;3.38;;
21665;SDS011;10994;45.486;9.190;2022-08-01T09:58:54;6.13;;;2.88;;
21665;SDS011;10994;45.486;9.190;2022-08-01T10:01:21;3.42;;;2.70;;
21665;SDS011;10994;45.486;9.190;2022-08-01T10:04:03;6.68;;;2.53;;
21665;SDS011;10994;45.486;9.190;2022-08-01T10:06:46;4.13;;;2.25;;
21665;SDS011;10994;45.486;9.190;2022-08-01T10:09:27;4.03;;;2.30;;
21665;SDS011;10994;45.486;9.190;2022-08-01T10:11:54;8.05;;;2.30;;
21665;SDS011;10994;45.486;9.190;2022-08-01T10:14:21;5.88;;;2.38;;
21665;SDS011;10994;45.486;9.190;2022-08-01T10:16:55;3.45;;;2.40;;
21665;SDS011;10994;45.486;9.190;2022-08-01T10:19:23;4.63;;;2.88;;
21665;SDS011;10994;45.486;9.190;2022-08-01T10:21:54;4.15;;;2.70;;
21665;SDS011;10994;45.486;9.190;2022-08-01T10:24:21;7.80;;;2.85;;
21665;SDS011;10994;45.486;9.190;2022-08-01T10:26:51;4.03;;;2.25;;
21665;SDS011;10994;45.486;9.190;2022-08-01T10:29:20;5.05;;;2.65;;
21665;SDS011;10994;45.486;9.190;2022-08-01T10:31:47;9.57;;;3.00;;
21665;SDS011;10994;45.486;9.190;2022-08-01T10:34:14;7.45;;;3.00;;
21665;SDS011;10994;45.486;9.190;2022-08-01T10:36:46;4.15;;;2.40;;
21665;SDS011;10994;45.486;9.190;2022-08-01T10:39:13;4.80;;;2.55;;
21665;SDS011;10994;45.486;9.190;2022-08-01T10:41:39;2.80;;;2.30;;
21665;SDS011;10994;45.486;9.190;2022-08-01T10:44:06;4.18;;;1.80;;
21665;SDS011;10994;45.486;9.190;2022-08-01T10:46:34;2.63;;;2.05;;
21665;SDS011;10994;45.486;9.190;2022-08-01T10:49:07;3.45;;;3.15;;
21665;SDS011;10994;45.486;9.190;2022-08-01T10:51:39;4.45;;;2.28;;
21665;SDS011;10994;45.486;9.190;2022-08-01T10:54:06;3.20;;;2.70;;
21665;SDS011;10994;45.486;9.190;2022-08-01T10:56:40;3.55;;;2.00;;
21665;SDS011;10994;45.486;9.190;2022-08-01T10:59:09;2.13;;;1.92;;
21665;SDS011;10994;45.486;9.190;2022-08-01T11:01:38;3.28;;;2.40;;
21665;SDS011;10994;45.486;9.190;2022-08-01T11:04:13;3.08;;;2.50;;
21665;SDS011;10994;45.486;9.190;2022-08-01T11:06:45;4.68;;;2.53;;
21665;SDS011;10994;45.486;9.190;2022-08-01T11:11:56;6.43;;;2.85;;
21665;SDS011;10994;45.486;9.190;2022-08-01T11:14:29;3.10;;;2.30;;
21665;SDS011;10994;45.486;9.190;2022-08-01T11:16:56;3.00;;;2.05;;
21665;SDS011;10994;45.486;9.190;2022-08-01T11:30:45;4.07;;;2.55;;
21665;SDS011;10994;45.486;9.190;2022-08-01T11:33:15;2.47;;;2.08;;
21665;SDS011;10994;45.486;9.190;2022-08-01T11:38:35;2.55;;;1.92;;
21665;SDS011;10994;45.486;9.190;2022-08-01T11:44:00;6.72;;;2.35;;
21665;SDS011;10994;45.486;9.190;2022-08-01T11:54:30;3.20;;;1.98;;
21665;SDS011;10994;45.486;9.190;2022-08-01T11:57:00;1.98;;;1.65;;
21665;SDS011;10994;45.486;9.190;2022-08-01T11:59:52;2.25;;;1.95;;
21665;SDS011;10994;45.486;9.190;2022-08-01T12:07:21;3.28;;;2.25;;
21665;SDS011;10994;45.486;9.190;2022-08-01T12:09:48;4.18;;;2.25;;
21665;SDS011;10994;45.486;9.190;2022-08-01T12:12:32;2.03;;;1.83;;
21665;SDS011;10994;45.486;9.190;2022-08-01T12:15:04;3.55;;;2.30;;
21665;SDS011;10994;45.486;9.190;2022-08-01T12:17:39;2.65;;;2.25;;
21665;SDS011;10994;45.486;9.190;2022-08-01T12:20:10;2.70;;;2.22;;
21665;SDS011;10994;45.486;9.190;2022-08-01T12:22:41;4.18;;;1.95;;
21665;SDS011;10994;45.486;9.190;2022-08-01T12:25:11;3.72;;;2.50;;
21665;SDS011;10994;45.486;9.190;2022-08-01T12:27:40;4.07;;;1.92;;
21665;SDS011;10994;45.486;9.190;2022-08-01T12:30:07;5.45;;;2.42;;
21665;SDS011;10994;45.486;9.190;2022-08-01T12:32:36;2.97;;;2.15;;
21665;SDS011;10994;45.486;9.190;2022-08-01T12:35:13;1.90;;;1.73;;
21665;SDS011;10994;45.486;9.190;2022-08-01T12:37:47;3.17;;;1.77;;
21665;SDS011;10994;45.486;9.190;2022-08-01T12:40:18;5.90;;;3.15;;
21665;SDS011;10994;45.486;9.190;2022-08-01T12:42:49;3.33;;;1.85;;
21665;SDS011;10994;45.486;9.190;2022-08-01T12:45:26;2.40;;;1.50;;
21665;SDS011;10994;45.486;9.190;2022-08-01T12:48:15;2.67;;;1.58;;
21665;SDS011;10994;45.486;9.190;2022-08-01T12:50:44;1.63;;;1.50;;
21665;SDS011;10994;45.486;9.190;2022-08-01T12:53:11;4.13;;;1.70;;
21665;SDS011;10994;45.486;9.190;2022-08-01T12:55:49;2.25;;;2.05;;
21665;SDS011;10994;45.486;9.190;2022-08-01T12:58:19;2.42;;;1.80;;
21665;SDS011;10994;45.486;9.190;2022-08-01T13:00:46;2.60;;;1.60;;
21665;SDS011;10994;45.486;9.190;2022-08-01T13:03:14;2.17;;;1.58;;
21665;SDS011;10994;45.486;9.190;2022-08-01T13:05:51;3.08;;;2.03;;
21665;SDS011;10994;45.486;9.190;2022-08-01T13:10:44;2.72;;;1.77;;
21665;SDS011;10994;45.486;9.190;2022-08-01T13:13:15;1.55;;;1.45;;
21665;SDS011;10994;45.486;9.190;2022-08-01T13:15:44;1.70;;;1.20;;
21665;SDS011;10994;45.486;9.190;2022-08-01T13:18:23;2.53;;;1.20;;
21665;SDS011;10994;45.486;9.190;2022-08-01T13:24:11;1.10;;;1.00;;
21665;SDS011;10994;45.486;9.190;2022-08-01T13:29:07;2.03;;;1.00;;
21665;SDS011;10994;45.486;9.190;2022-08-01T13:31:37;4.95;;;1.67;;
21665;SDS011;10994;45.486;9.190;2022-08-01T13:34:04;2.35;;;1.25;;
21665;SDS011;10994;45.486;9.190;2022-08-01T13:36:30;2.53;;;1.10;;
21665;SDS011;10994;45.486;9.190;2022-08-01T13:38:57;3.20;;;1.30;;
21665;SDS011;10994;45.486;9.190;2022-08-01T13:41:42;2.88;;;1.23;;
21665;SDS011;10994;45.486;9.190;2022-08-01T13:44:12;2.08;;;1.38;;
21665;SDS011;10994;45.486;9.190;2022-08-01T13:46:38;1.23;;;1.00;;
21665;SDS011;10994;45.486;9.190;2022-08-01T13:49:06;0.98;;;0.93;;
21665;SDS011;10994;45.486;9.190;2022-08-01T13:51:33;2.38;;;1.10;;
21665;SDS011;10994;45.486;9.190;2022-08-01T13:53:59;1.08;;;1.00;;
21665;SDS011;10994;45.486;9.190;2022-08-01T13:56:25;1.38;;;1.10;;
21665;SDS011;10994;45.486;9.190;2022-08-01T13:58:52;2.47;;;1.48;;
21665;SDS011;10994;45.486;9.190;2022-08-01T14:01:19;2.55;;;1.25;;
21665;SDS011;10994;45.486;9.190;2022-08-01T14:03:45;4.47;;;1.40;;
21665;SDS011;10994;45.486;9.190;2022-08-01T14:06:11;1.10;;;1.08;;
21665;SDS011;10994;45.486;9.190;2022-08-01T14:08:39;1.83;;;1.30;;
21665;SDS011;10994;45.486;9.190;2022-08-01T14:11:04;1.35;;;1.23;;
21665;SDS011;10994;45.486;9.190;2022-08-01T14:13:30;1.77;;;1.67;;
21665;SDS011;10994;45.486;9.190;2022-08-01T14:15:58;1.23;;;1.10;;
21665;SDS011;10994;45.486;9.190;2022-08-01T14:18:24;1.25;;;1.15;;
21665;SDS011;10994;45.486;9.190;2022-08-01T14:20:49;3.15;;;1.42;;
21665;SDS011;10994;45.486;9.190;2022-08-01T14:23:15;0.80;;;0.80;;
21665;SDS011;10994;45.486;9.190;2022-08-01T14:25:41;1.27;;;0.88;;
21665;SDS011;10994;45.486;9.190;2022-08-01T14:28:07;2.10;;;0.85;;
21665;SDS011;10994;45.486;9.190;2022-08-01T14:30:33;1.05;;;0.85;;
21665;SDS011;10994;45.486;9.190;2022-08-01T14:32:59;2.95;;;0.93;;
21665;SDS011;10994;45.486;9.190;2022-08-01T14:35:24;3.15;;;0.98;;
21665;SDS011;10994;45.486;9.190;2022-08-01T14:37:50;0.98;;;0.88;;
21665;SDS011;10994;45.486;9.190;2022-08-01T14:40:16;1.00;;;0.90;;
21665;SDS011;10994;45.486;9.190;2022-08-01T14:42:42;0.70;;;0.70;;
21665;SDS011;10994;45.486;9.190;2022-08-01T14:45:11;1.90;;;0.90;;
21665;SDS011;10994;45.486;9.190;2022-08-01T14:47:38;0.75;;;0.75;;
21665;SDS011;10994;45.486;9.190;2022-08-01T14:50:09;0.93;;;0.93;;
21665;SDS011;10994;45.486;9.190;2022-08-01T14:52:39;4.25;;;0.88;;
21665;SDS011;10994;45.486;9.190;2022-08-01T14:55:06;0.80;;;0.80;;
21665;SDS011;10994;45.486;9.190;2022-08-01T14:57:33;1.50;;;0.90;;
21665;SDS011;10994;45.486;9.190;2022-08-01T14:59:59;0.88;;;0.80;;
21665;SDS011;10994;45.486;9.190;2022-08-01T15:02:25;1.75;;;1.00;;
21665;SDS011;10994;45.486;9.190;2022-08-01T15:04:51;1.00;;;0.90;;
21665;SDS011;10994;45.486;9.190;2022-08-01T15:07:17;1.20;;;0.93;;
21665;SDS011;10994;45.486;9.190;2022-08-01T15:09:43;1.52;;;0.88;;
21665;SDS011;10994;45.486;9.190;2022-08-01T15:12:10;1.35;;;0.75;;
21665;SDS011;10994;45.486;9.190;2022-08-01T15:14:36;0.98;;;0.90;;
21665;SDS011;10994;45.486;9.190;2022-08-01T15:17:14;0.90;;;0.90;;
21665;SDS011;10994;45.486;9.190;2022-08-01T15:19:52;0.95;;;0.80;;
21665;SDS011;10994;45.486;9.190;2022-08-01T15:22:19;1.70;;;0.90;;
21665;SDS011;10994;45.486;9.190;2022-08-01T15:24:49;0.75;;;0.75;;
21665;SDS011;10994;45.486;9.190;2022-08-01T15:27:16;1.75;;;1.05;;
21665;SDS011;10994;45.486;9.190;2022-08-01T15:29:42;0.80;;;0.80;;
21665;SDS011;10994;45.486;9.190;2022-08-01T15:32:08;1.55;;;1.00;;
21665;SDS011;10994;45.486;9.190;2022-08-01T15:34:34;0.85;;;0.80;;
21665;SDS011;10994;45.486;9.190;2022-08-01T15:37:01;1.35;;;1.20;;
21665;SDS011;10994;45.486;9.190;2022-08-01T15:39:28;3.08;;;1.10;;
21665;SDS011;10994;45.486;9.190;2022-08-01T15:41:54;3.30;;;1.10;;
21665;SDS011;10994;45.486;9.190;2022-08-01T15:44:22;1.02;;;0.93;;
21665;SDS011;10994;45.486;9.190;2022-08-01T15:46:48;1.02;;;1.00;;
21665;SDS011;10994;45.486;9.190;2022-08-01T15:49:15;1.63;;;1.08;;